sensor_id;sensor_type;location;lat;lon;timestamp;pressure;altitude;pressure_sealevel;temperature;humidity
78354;BME280;67629;46.040;18.232;2023-05-07T00:00:50;99672.38;;;14.76;68.27
78354;BME280;67629;46.040;18.232;2023-05-07T00:03:38;99667.16;;;14.74;68.68
78354;BME280;67629;46.040;18.232;2023-05-07T00:05:19;99664.09;;;14.66;70.14
78354;BME280;67629;46.040;18.232;2023-05-07T00:07:22;99666.00;;;14.60;69.87
78354;BME280;67629;46.040;18.232;2023-05-07T00:09:26;99663.28;;;14.65;68.77
78354;BME280;67629;46.040;18.232;2023-05-07T00:11:54;99669.03;;;14.64;68.62
78354;BME280;67629;46.040;18.232;2023-05-07T00:13:58;99667.13;;;14.69;68.04
78354;BME280;67629;46.040;18.232;2023-05-07T00:15:38;99662.44;;;14.70;68.58
78354;BME280;67629;46.040;18.232;2023-05-07T00:17:19;99669.91;;;14.74;67.67
78354;BME280;67629;46.040;18.232;2023-05-07T00:19:42;99666.88;;;14.76;67.18
78354;BME280;67629;46.040;18.232;2023-05-07T00:24:16;99660.28;;;14.77;67.04
78354;BME280;67629;46.040;18.232;2023-05-07T00:26:57;99668.00;;;14.75;67.36
78354;BME280;67629;46.040;18.232;2023-05-07T00:28:37;99668.00;;;14.75;67.53
78354;BME280;67629;46.040;18.232;2023-05-07T00:30:18;99660.53;;;14.75;67.26
78354;BME280;67629;46.040;18.232;2023-05-07T00:31:20;99666.03;;;14.75;67.25
78354;BME280;67629;46.040;18.232;2023-05-07T00:32:44;99671.53;;;14.75;67.17
78354;BME280;67629;46.040;18.232;2023-05-07T00:33:47;99662.75;;;14.73;67.68
78354;BME280;67629;46.040;18.232;2023-05-07T00:35:28;99669.09;;;14.74;67.24
78354;BME280;67629;46.040;18.232;2023-05-07T00:37:30;99674.84;;;14.72;68.13
78354;BME280;67629;46.040;18.232;2023-05-07T00:39:35;99667.16;;;14.74;67.43
78354;BME280;67629;46.040;18.232;2023-05-07T00:42:17;99668.25;;;14.68;68.44
78354;BME280;67629;46.040;18.232;2023-05-07T00:44:00;99665.19;;;14.70;68.21
78354;BME280;67629;46.040;18.232;2023-05-07T00:45:26;99672.38;;;14.71;68.52
78354;BME280;67629;46.040;18.232;2023-05-07T00:46:30;99672.91;;;14.73;67.83
78354;BME280;67629;46.040;18.232;2023-05-07T00:47:32;99670.16;;;14.78;66.67
78354;BME280;67629;46.040;18.232;2023-05-07T00:49:12;99681.22;;;14.83;66.62
78354;BME280;67629;46.040;18.232;2023-05-07T00:50:52;99680.69;;;14.86;66.37
78354;BME280;67629;46.040;18.232;2023-05-07T00:52:55;99678.75;;;14.92;66.25
78354;BME280;67629;46.040;18.232;2023-05-07T00:54:20;99679.03;;;14.95;66.34
78354;BME280;67629;46.040;18.232;2023-05-07T00:55:23;99678.22;;;15.00;65.95
78354;BME280;67629;46.040;18.232;2023-05-07T00:58:06;99677.44;;;15.09;65.76
78354;BME280;67629;46.040;18.232;2023-05-07T00:59:46;99679.66;;;15.12;65.18
78354;BME280;67629;46.040;18.232;2023-05-07T01:01:29;99679.66;;;15.12;66.03
78354;BME280;67629;46.040;18.232;2023-05-07T01:03:51;99675.78;;;15.08;68.07
78354;BME280;67629;46.040;18.232;2023-05-07T01:07:29;99668.06;;;15.00;67.00
78354;BME280;67629;46.040;18.232;2023-05-07T01:08:32;99669.97;;;15.00;67.15
78354;BME280;67629;46.040;18.232;2023-05-07T01:10:57;99673.28;;;15.02;67.70
78354;BME280;67629;46.040;18.232;2023-05-07T01:13:00;99671.66;;;15.01;67.99
78354;BME280;67629;46.040;18.232;2023-05-07T01:15:07;99672.16;;;14.93;69.02
78354;BME280;67629;46.040;18.232;2023-05-07T01:16:48;99673.56;;;15.00;68.99
78354;BME280;67629;46.040;18.232;2023-05-07T01:18:30;99672.19;;;15.03;68.00
78354;BME280;67629;46.040;18.232;2023-05-07T01:20:12;99666.41;;;15.04;67.74
78354;BME280;67629;46.040;18.232;2023-05-07T01:21:53;99672.47;;;15.06;67.69
78354;BME280;67629;46.040;18.232;2023-05-07T01:24:18;99672.97;;;14.98;69.28
78354;BME280;67629;46.040;18.232;2023-05-07T01:25:41;99670.22;;;14.98;68.83
78354;BME280;67629;46.040;18.232;2023-05-07T01:26:43;99669.16;;;15.04;67.88
78354;BME280;67629;46.040;18.232;2023-05-07T01:28:45;99670.28;;;15.03;67.96
78354;BME280;67629;46.040;18.232;2023-05-07T01:30:26;99672.97;;;14.98;68.74
78354;BME280;67629;46.040;18.232;2023-05-07T01:32:48;99671.34;;;15.02;68.44
78354;BME280;67629;46.040;18.232;2023-05-07T01:35:59;99665.56;;;15.04;67.51
78354;BME280;67629;46.040;18.232;2023-05-07T01:37:43;99662.03;;;15.03;68.29
78354;BME280;67629;46.040;18.232;2023-05-07T01:39:26;99662.56;;;15.05;66.87
78354;BME280;67629;46.040;18.232;2023-05-07T01:41:07;99656.22;;;15.05;67.01
78354;BME280;67629;46.040;18.232;2023-05-07T01:42:48;99661.72;;;15.00;68.21
78354;BME280;67629;46.040;18.232;2023-05-07T01:44:29;99653.72;;;14.98;67.20
78354;BME280;67629;46.040;18.232;2023-05-07T01:46:10;99658.69;;;15.01;65.55
78354;BME280;67629;46.040;18.232;2023-05-07T01:47:53;99647.72;;;15.06;65.79
78354;BME280;67629;46.040;18.232;2023-05-07T01:49:35;99654.31;;;15.05;65.38
78354;BME280;67629;46.040;18.232;2023-05-07T01:51:57;99665.31;;;15.10;64.31
78354;BME280;67629;46.040;18.232;2023-05-07T01:53:01;99655.69;;;15.13;64.42
78354;BME280;67629;46.040;18.232;2023-05-07T01:56:04;99659.81;;;15.15;63.64
78354;BME280;67629;46.040;18.232;2023-05-07T01:58:27;99658.19;;;15.14;64.14
78354;BME280;67629;46.040;18.232;2023-05-07T02:00:32;99660.94;;;15.19;63.56
78354;BME280;67629;46.040;18.232;2023-05-07T02:02:13;99656.56;;;15.23;63.28
78354;BME280;67629;46.040;18.232;2023-05-07T02:04:14;99660.13;;;15.29;62.33
78354;BME280;67629;46.040;18.232;2023-05-07T02:05:55;99654.06;;;15.27;62.57
78354;BME280;67629;46.040;18.232;2023-05-07T02:07:36;99658.47;;;15.28;63.33
78354;BME280;67629;46.040;18.232;2023-05-07T02:09:38;99649.97;;;15.29;63.11
78354;BME280;67629;46.040;18.232;2023-05-07T02:11:45;99647.75;;;15.31;62.49
78354;BME280;67629;46.040;18.232;2023-05-07T02:14:16;99646.63;;;15.27;62.80
78354;BME280;67629;46.040;18.232;2023-05-07T02:16:38;99643.06;;;15.37;62.03
78354;BME280;67629;46.040;18.232;2023-05-07T02:18:19;99651.03;;;15.38;62.30
78354;BME280;67629;46.040;18.232;2023-05-07T02:20:01;99643.63;;;15.34;64.17
78354;BME280;67629;46.040;18.232;2023-05-07T02:21:42;99645.81;;;15.37;63.37
78354;BME280;67629;46.040;18.232;2023-05-07T02:23:05;99641.69;;;15.34;65.18
78354;BME280;67629;46.040;18.232;2023-05-07T02:24:08;99642.25;;;15.26;65.65
78354;BME280;67629;46.040;18.232;2023-05-07T02:25:49;99647.19;;;15.14;66.31
78354;BME280;67629;46.040;18.232;2023-05-07T02:27:30;99644.69;;;15.03;67.46
78354;BME280;67629;46.040;18.232;2023-05-07T02:29:11;99644.44;;;15.09;66.49
78354;BME280;67629;46.040;18.232;2023-05-07T02:31:16;99637.53;;;15.12;66.95
78354;BME280;67629;46.040;18.232;2023-05-07T02:32:57;99633.97;;;15.06;67.41
78354;BME280;67629;46.040;18.232;2023-05-07T02:34:59;99635.59;;;15.02;67.16
78354;BME280;67629;46.040;18.232;2023-05-07T02:36:40;99635.59;;;15.02;66.91
78354;BME280;67629;46.040;18.232;2023-05-07T02:38:20;99632.56;;;14.94;68.50
78354;BME280;67629;46.040;18.232;2023-05-07T02:40:22;99641.59;;;14.84;69.12
78354;BME280;67629;46.040;18.232;2023-05-07T02:43:05;99640.97;;;14.57;71.30
78354;BME280;67629;46.040;18.232;2023-05-07T02:46:00;99635.72;;;14.55;69.70
78354;BME280;67629;46.040;18.232;2023-05-07T02:47:43;99628.31;;;14.61;69.47
78354;BME280;67629;46.040;18.232;2023-05-07T02:49:24;99626.72;;;14.65;68.79
78354;BME280;67629;46.040;18.232;2023-05-07T02:52:32;99620.97;;;14.71;69.31
78354;BME280;67629;46.040;18.232;2023-05-07T02:54:13;99619.59;;;14.74;69.22
78354;BME280;67629;46.040;18.232;2023-05-07T02:55:53;99619.59;;;14.79;68.17
78354;BME280;67629;46.040;18.232;2023-05-07T02:57:34;99623.19;;;14.84;67.75
78354;BME280;67629;46.040;18.232;2023-05-07T02:59:15;99620.97;;;14.87;68.00
78354;BME280;67629;46.040;18.232;2023-05-07T03:00:55;99627.59;;;14.91;67.55
78354;BME280;67629;46.040;18.232;2023-05-07T03:03:16;99624.59;;;14.97;66.69
78354;BME280;67629;46.040;18.232;2023-05-07T03:05:18;99628.72;;;15.05;66.00
78354;BME280;67629;46.040;18.232;2023-05-07T03:06:20;99632.31;;;15.05;66.22
78354;BME280;67629;46.040;18.232;2023-05-07T03:08:01;99633.41;;;15.09;65.73
78354;BME280;67629;46.040;18.232;2023-05-07T03:11:12;99629.84;;;15.14;66.05
78354;BME280;67629;46.040;18.232;2023-05-07T03:12:53;99636.72;;;15.16;66.57
78354;BME280;67629;46.040;18.232;2023-05-07T03:14:33;99636.72;;;15.21;65.77
78354;BME280;67629;46.040;18.232;2023-05-07T03:16:15;99630.41;;;15.26;64.58
78354;BME280;67629;46.040;18.232;2023-05-07T03:17:56;99632.88;;;15.27;64.38
78354;BME280;67629;46.040;18.232;2023-05-07T03:19:19;99641.13;;;15.32;64.30
78354;BME280;67629;46.040;18.232;2023-05-07T03:20:22;99635.34;;;15.34;63.66
78354;BME280;67629;46.040;18.232;2023-05-07T03:22:26;99639.78;;;15.35;63.36
78354;BME280;67629;46.040;18.232;2023-05-07T03:23:29;99634.53;;;15.33;64.80
78354;BME280;67629;46.040;18.232;2023-05-07T03:24:14;99642.78;;;15.38;64.81
78354;BME280;67629;46.040;18.232;2023-05-07T03:25:17;99638.09;;;15.39;64.33
78354;BME280;67629;46.040;18.232;2023-05-07T03:26:57;99641.97;;;15.38;64.72
78354;BME280;67629;46.040;18.232;2023-05-07T03:28:37;99645.28;;;15.40;64.80
78354;BME280;67629;46.040;18.232;2023-05-07T03:30:39;99642.81;;;15.44;64.30
78354;BME280;67629;46.040;18.232;2023-05-07T03:32:44;99644.44;;;15.39;65.14
78354;BME280;67629;46.040;18.232;2023-05-07T03:34:24;99647.75;;;15.41;65.31
78354;BME280;67629;46.040;18.232;2023-05-07T03:36:07;99646.66;;;15.43;64.90
78354;BME280;67629;46.040;18.232;2023-05-07T03:37:48;99647.19;;;15.45;63.91
78354;BME280;67629;46.040;18.232;2023-05-07T03:39:29;99653.25;;;15.41;64.27
78354;BME280;67629;46.040;18.232;2023-05-07T03:41:51;99650.25;;;15.38;64.58
78354;BME280;67629;46.040;18.232;2023-05-07T03:42:54;99647.47;;;15.38;64.47
78354;BME280;67629;46.040;18.232;2023-05-07T03:45:16;99644.72;;;15.38;65.24
78354;BME280;67629;46.040;18.232;2023-05-07T03:47:03;99648.56;;;15.42;64.84
78354;BME280;67629;46.040;18.232;2023-05-07T03:48:06;99646.66;;;15.43;64.74
78354;BME280;67629;46.040;18.232;2023-05-07T03:53:35;99656.06;;;15.47;65.64
78354;BME280;67629;46.040;18.232;2023-05-07T03:55:16;99659.34;;;15.54;64.30
78354;BME280;67629;46.040;18.232;2023-05-07T03:56:57;99657.69;;;15.53;63.49
78354;BME280;67629;46.040;18.232;2023-05-07T03:58:37;99657.97;;;15.56;64.25
78354;BME280;67629;46.040;18.232;2023-05-07T04:00:18;99659.63;;;15.52;63.97
78354;BME280;67629;46.040;18.232;2023-05-07T04:02:00;99657.13;;;15.51;64.29
78354;BME280;67629;46.040;18.232;2023-05-07T04:03:41;99656.88;;;15.57;64.19
78354;BME280;67629;46.040;18.232;2023-05-07T04:05:22;99659.91;;;15.61;64.35
78354;BME280;67629;46.040;18.232;2023-05-07T04:06:48;99654.94;;;15.63;63.97
78354;BME280;67629;46.040;18.232;2023-05-07T04:07:51;99653.56;;;15.65;64.22
78354;BME280;67629;46.040;18.232;2023-05-07T04:10:34;99660.69;;;15.61;64.84
78354;BME280;67629;46.040;18.232;2023-05-07T04:12:15;99659.63;;;15.62;63.78
78354;BME280;67629;46.040;18.232;2023-05-07T04:14:38;99660.44;;;15.68;63.75
78354;BME280;67629;46.040;18.232;2023-05-07T04:16:29;99667.06;;;15.67;63.78
78354;BME280;67629;46.040;18.232;2023-05-07T04:19:33;99672.56;;;15.72;63.59
78354;BME280;67629;46.040;18.232;2023-05-07T04:20:35;99670.34;;;15.69;63.60
78354;BME280;67629;46.040;18.232;2023-05-07T04:21:39;99676.13;;;15.67;63.32
78354;BME280;67629;46.040;18.232;2023-05-07T04:23:22;99676.13;;;15.67;62.83
78354;BME280;67629;46.040;18.232;2023-05-07T04:26:32;99680.81;;;15.62;64.35
78354;BME280;67629;46.040;18.232;2023-05-07T04:30:55;99685.22;;;15.68;63.74
78354;BME280;67629;46.040;18.232;2023-05-07T04:33:00;99692.09;;;15.65;64.11
78354;BME280;67629;46.040;18.232;2023-05-07T04:36:23;99700.63;;;15.49;65.29
78354;BME280;67629;46.040;18.232;2023-05-07T04:38:55;99696.75;;;15.45;66.13
78354;BME280;67629;46.040;18.232;2023-05-07T04:39:58;99701.69;;;15.37;67.08
78354;BME280;67629;46.040;18.232;2023-05-07T04:41:04;99703.63;;;15.32;67.38
78354;BME280;67629;46.040;18.232;2023-05-07T04:42:45;99702.50;;;15.33;66.74
78354;BME280;67629;46.040;18.232;2023-05-07T04:44:26;99706.63;;;15.30;66.87
78354;BME280;67629;46.040;18.232;2023-05-07T04:47:36;99704.41;;;15.22;67.10
78354;BME280;67629;46.040;18.232;2023-05-07T04:49:17;99708.84;;;15.23;67.63
78354;BME280;67629;46.040;18.232;2023-05-07T04:51:59;99708.50;;;15.10;68.97
78354;BME280;67629;46.040;18.232;2023-05-07T04:54:20;99709.63;;;15.09;68.76
78354;BME280;67629;46.040;18.232;2023-05-07T04:56:01;99723.09;;;15.10;69.55
78354;BME280;67629;46.040;18.232;2023-05-07T04:57:42;99717.88;;;15.09;69.66
78354;BME280;67629;46.040;18.232;2023-05-07T04:59:24;99719.50;;;15.05;68.61
78354;BME280;67629;46.040;18.232;2023-05-07T05:02:51;99719.75;;;14.98;70.36
78354;BME280;67629;46.040;18.232;2023-05-07T05:06:01;99726.41;;;15.12;69.66
78354;BME280;67629;46.040;18.232;2023-05-07T05:06:48;99717.59;;;15.10;69.33
78354;BME280;67629;46.040;18.232;2023-05-07T05:07:36;99723.94;;;15.11;69.25
78354;BME280;67629;46.040;18.232;2023-05-07T05:08:39;99731.63;;;15.14;68.74
78354;BME280;67629;46.040;18.232;2023-05-07T05:12:05;99736.34;;;15.28;68.45
78354;BME280;67629;46.040;18.232;2023-05-07T05:13:47;99736.91;;;15.30;68.17
78354;BME280;67629;46.040;18.232;2023-05-07T05:15:42;99735.88;;;15.47;69.04
78354;BME280;67629;46.040;18.232;2023-05-07T05:17:06;99729.84;;;15.55;67.32
78354;BME280;67629;46.040;18.232;2023-05-07T05:18:09;99737.25;;;15.54;67.71
78354;BME280;67629;46.040;18.232;2023-05-07T05:19:11;99732.59;;;15.60;67.42
78354;BME280;67629;46.040;18.232;2023-05-07T05:20:51;99728.72;;;15.66;67.32
78354;BME280;67629;46.040;18.232;2023-05-07T05:23:34;99726.25;;;15.54;67.52
78354;BME280;67629;46.040;18.232;2023-05-07T05:25:15;99726.50;;;15.48;68.11
78354;BME280;67629;46.040;18.232;2023-05-07T05:29:46;99733.97;;;15.67;68.28
78354;BME280;67629;46.040;18.232;2023-05-07T05:31:27;99742.50;;;15.66;68.62
78354;BME280;67629;46.040;18.232;2023-05-07T05:33:07;99735.63;;;15.63;67.28
78354;BME280;67629;46.040;18.232;2023-05-07T05:36:10;99741.66;;;15.65;68.00
78354;BME280;67629;46.040;18.232;2023-05-07T05:37:53;99737.84;;;15.66;67.49
78354;BME280;67629;46.040;18.232;2023-05-07T05:39:35;99741.13;;;15.73;67.30
78354;BME280;67629;46.040;18.232;2023-05-07T05:41:16;99741.97;;;15.69;68.94
78354;BME280;67629;46.040;18.232;2023-05-07T05:43:21;99749.41;;;15.58;68.40
78354;BME280;67629;46.040;18.232;2023-05-07T05:45:02;99755.19;;;15.82;68.71
78354;BME280;67629;46.040;18.232;2023-05-07T05:46:05;99752.97;;;15.74;68.37
78354;BME280;67629;46.040;18.232;2023-05-07T05:47:48;99749.69;;;15.67;68.32
78354;BME280;67629;46.040;18.232;2023-05-07T05:49:29;99753.81;;;15.89;68.01
78354;BME280;67629;46.040;18.232;2023-05-07T05:52:51;99756.28;;;15.96;67.32
78354;BME280;67629;46.040;18.232;2023-05-07T05:54:57;99751.34;;;15.98;67.28
78354;BME280;67629;46.040;18.232;2023-05-07T05:56:38;99761.50;;;16.08;67.27
78354;BME280;67629;46.040;18.232;2023-05-07T05:59:42;99757.63;;;16.19;66.97
78354;BME280;67629;46.040;18.232;2023-05-07T06:01:23;99761.22;;;16.24;67.14
78354;BME280;67629;46.040;18.232;2023-05-07T06:03:04;99751.31;;;16.23;67.04
78354;BME280;67629;46.040;18.232;2023-05-07T06:04:45;99760.66;;;16.27;66.56
78354;BME280;67629;46.040;18.232;2023-05-07T06:07:06;99757.88;;;16.42;66.66
78354;BME280;67629;46.040;18.232;2023-05-07T06:08:47;99758.44;;;16.55;66.04
78354;BME280;67629;46.040;18.232;2023-05-07T06:10:28;99753.44;;;16.62;65.32
78354;BME280;67629;46.040;18.232;2023-05-07T06:13:01;99749.09;;;16.56;65.10
78354;BME280;67629;46.040;18.232;2023-05-07T06:15:22;99749.59;;;16.63;65.89
78354;BME280;67629;46.040;18.232;2023-05-07T06:17:03;99744.94;;;16.58;65.34
78354;BME280;67629;46.040;18.232;2023-05-07T06:18:46;99745.75;;;16.59;66.40
78354;BME280;67629;46.040;18.232;2023-05-07T06:21:29;99749.03;;;16.50;67.86
78354;BME280;67629;46.040;18.232;2023-05-07T06:23:10;99743.00;;;16.43;67.88
78354;BME280;67629;46.040;18.232;2023-05-07T06:24:52;99738.03;;;16.45;68.06
78354;BME280;67629;46.040;18.232;2023-05-07T06:26:33;99739.41;;;16.48;67.76
78354;BME280;67629;46.040;18.232;2023-05-07T06:27:35;99733.59;;;16.44;67.15
78354;BME280;67629;46.040;18.232;2023-05-07T06:28:38;99734.47;;;16.55;67.56
78354;BME280;67629;46.040;18.232;2023-05-07T06:31:21;99744.94;;;16.58;69.44
78354;BME280;67629;46.040;18.232;2023-05-07T06:34:50;99735.81;;;16.52;69.03
78354;BME280;67629;46.040;18.232;2023-05-07T06:36:56;99736.09;;;16.46;68.59
78354;BME280;67629;46.040;18.232;2023-05-07T06:39:54;99730.31;;;16.52;68.86
78354;BME280;67629;46.040;18.232;2023-05-07T06:42:02;99727.84;;;16.46;68.65
78354;BME280;67629;46.040;18.232;2023-05-07T06:44:55;99723.44;;;16.40;69.27
78354;BME280;67629;46.040;18.232;2023-05-07T06:45:58;99727.53;;;16.47;68.47
78354;BME280;67629;46.040;18.232;2023-05-07T06:47:38;99724.50;;;16.59;69.44
78354;BME280;67629;46.040;18.232;2023-05-07T06:49:59;99727.19;;;16.84;68.81
78354;BME280;67629;46.040;18.232;2023-05-07T06:51:40;99730.19;;;16.93;68.84
78354;BME280;67629;46.040;18.232;2023-05-07T06:53:42;99736.19;;;17.05;69.81
78354;BME280;67629;46.040;18.232;2023-05-07T06:56:04;99734.78;;;17.13;67.84
78354;BME280;67629;46.040;18.232;2023-05-07T06:57:47;99733.63;;;17.24;68.95
78354;BME280;67629;46.040;18.232;2023-05-07T07:01:41;99738.16;;;17.48;68.53
78354;BME280;67629;46.040;18.232;2023-05-07T07:03:42;99742.56;;;17.49;66.23
78354;BME280;67629;46.040;18.232;2023-05-07T07:05:51;99746.94;;;17.60;64.23
78354;BME280;67629;46.040;18.232;2023-05-07T07:07:59;99744.75;;;17.96;64.23
78354;BME280;67629;46.040;18.232;2023-05-07T07:08:45;99751.94;;;17.92;65.46
78354;BME280;67629;46.040;18.232;2023-05-07T07:09:49;99752.56;;;17.84;65.68
78354;BME280;67629;46.040;18.232;2023-05-07T07:11:30;99750.50;;;18.00;63.63
78354;BME280;67629;46.040;18.232;2023-05-07T07:14:12;99752.09;;;18.06;63.76
78354;BME280;67629;46.040;18.232;2023-05-07T07:16:17;99753.78;;;18.07;63.07
78354;BME280;67629;46.040;18.232;2023-05-07T07:18:59;99755.06;;;18.14;63.16
78354;BME280;67629;46.040;18.232;2023-05-07T07:21:04;99755.47;;;18.32;61.48
78354;BME280;67629;46.040;18.232;2023-05-07T07:22:44;99765.00;;;18.49;61.81
78354;BME280;67629;46.040;18.232;2023-05-07T07:24:25;99756.41;;;18.74;60.35
78354;BME280;67629;46.040;18.232;2023-05-07T07:25:27;99758.47;;;18.64;60.64
78354;BME280;67629;46.040;18.232;2023-05-07T07:27:07;99756.41;;;18.74;60.21
78354;BME280;67629;46.040;18.232;2023-05-07T07:28:58;99760.91;;;18.70;60.95
78354;BME280;67629;46.040;18.232;2023-05-07T07:30:52;99752.31;;;19.14;59.25
78354;BME280;67629;46.040;18.232;2023-05-07T07:32:33;99757.66;;;19.11;59.68
78354;BME280;67629;46.040;18.232;2023-05-07T07:34:15;99759.28;;;19.12;58.86
78354;BME280;67629;46.040;18.232;2023-05-07T07:35:55;99753.75;;;19.12;58.63
78354;BME280;67629;46.040;18.232;2023-05-07T07:38:16;99749.19;;;19.21;57.30
78354;BME280;67629;46.040;18.232;2023-05-07T07:39:42;99750.22;;;19.06;58.51
78354;BME280;67629;46.040;18.232;2023-05-07T07:41:10;99757.06;;;19.14;58.07
78354;BME280;67629;46.040;18.232;2023-05-07T07:42:12;99752.75;;;19.03;57.72
78354;BME280;67629;46.040;18.232;2023-05-07T07:44:03;99759.59;;;19.10;57.84
78354;BME280;67629;46.040;18.232;2023-05-07T07:46:27;99759.16;;;19.22;57.92
78354;BME280;67629;46.040;18.232;2023-05-07T07:48:48;99753.97;;;19.39;57.64
78354;BME280;67629;46.040;18.232;2023-05-07T07:50:54;99751.66;;;19.46;59.24
78354;BME280;67629;46.040;18.232;2023-05-07T07:52:35;99753.53;;;19.51;58.41
78354;BME280;67629;46.040;18.232;2023-05-07T07:54:25;99758.63;;;19.44;59.11
78354;BME280;67629;46.040;18.232;2023-05-07T07:57:45;99764.91;;;19.49;57.42
78354;BME280;67629;46.040;18.232;2023-05-07T08:00:37;99762.28;;;19.76;57.32
78354;BME280;67629;46.040;18.232;2023-05-07T08:02:42;99768.06;;;20.31;56.45
78354;BME280;67629;46.040;18.232;2023-05-07T08:04:43;99765.91;;;20.09;55.30
78354;BME280;67629;46.040;18.232;2023-05-07T08:07:42;99769.66;;;20.64;54.46
78354;BME280;67629;46.040;18.232;2023-05-07T08:09:44;99767.31;;;20.98;54.49
78354;BME280;67629;46.040;18.232;2023-05-07T08:11:28;99767.56;;;21.16;52.88
78354;BME280;67629;46.040;18.232;2023-05-07T08:13:11;99767.38;;;21.12;52.46
78354;BME280;67629;46.040;18.232;2023-05-07T08:14:13;99768.63;;;21.55;51.40
78354;BME280;67629;46.040;18.232;2023-05-07T08:15:57;99771.13;;;21.79;52.65
78354;BME280;67629;46.040;18.232;2023-05-07T08:18:03;99774.97;;;21.70;51.64
78354;BME280;67629;46.040;18.232;2023-05-07T08:21:24;99780.72;;;22.31;50.60
78354;BME280;67629;46.040;18.232;2023-05-07T08:23:06;99773.78;;;21.98;49.25
78354;BME280;67629;46.040;18.232;2023-05-07T08:26:14;99784.00;;;22.33;48.61
78354;BME280;67629;46.040;18.232;2023-05-07T08:29:22;99784.31;;;22.54;48.36
78354;BME280;67629;46.040;18.232;2023-05-07T08:33:27;99796.59;;;22.31;52.43
78354;BME280;67629;46.040;18.232;2023-05-07T08:35:08;99789.25;;;22.57;49.58
78354;BME280;67629;46.040;18.232;2023-05-07T08:36:50;99784.16;;;22.28;51.41
78354;BME280;67629;46.040;18.232;2023-05-07T08:38:52;99791.28;;;22.65;49.34
78354;BME280;67629;46.040;18.232;2023-05-07T08:39:55;99787.75;;;22.82;49.17
78354;BME280;67629;46.040;18.232;2023-05-07T08:41:35;99787.84;;;22.68;48.24
78354;BME280;67629;46.040;18.232;2023-05-07T08:43:19;99787.72;;;22.51;50.81
78354;BME280;67629;46.040;18.232;2023-05-07T08:46:10;99796.69;;;22.70;49.46
78354;BME280;67629;46.040;18.232;2023-05-07T08:48:16;99796.31;;;22.32;49.65
78354;BME280;67629;46.040;18.232;2023-05-07T08:50:18;99787.81;;;22.37;50.76
78354;BME280;67629;46.040;18.232;2023-05-07T08:52:00;99786.31;;;22.09;51.04
78354;BME280;67629;46.040;18.232;2023-05-07T08:53:42;99788.69;;;21.66;54.17
78354;BME280;67629;46.040;18.232;2023-05-07T08:55:34;99785.84;;;21.44;54.14
78354;BME280;67629;46.040;18.232;2023-05-07T08:57:11;99778.78;;;21.11;55.40
78354;BME280;67629;46.040;18.232;2023-05-07T08:58:15;99769.81;;;21.27;54.51
78354;BME280;67629;46.040;18.232;2023-05-07T09:00:17;99774.72;;;20.89;55.84
78354;BME280;67629;46.040;18.232;2023-05-07T09:02:23;99772.38;;;20.96;55.29
78354;BME280;67629;46.040;18.232;2023-05-07T09:04:04;99773.50;;;20.95;55.66
78354;BME280;67629;46.040;18.232;2023-05-07T09:06:28;99774.94;;;20.79;58.13
78354;BME280;67629;46.040;18.232;2023-05-07T09:10:25;99771.34;;;20.92;59.04
78354;BME280;67629;46.040;18.232;2023-05-07T09:12:46;99778.75;;;20.83;59.79
78354;BME280;67629;46.040;18.232;2023-05-07T09:14:11;99773.59;;;20.90;59.26
78354;BME280;67629;46.040;18.232;2023-05-07T09:16:23;99773.50;;;20.68;60.62
78354;BME280;67629;46.040;18.232;2023-05-07T09:21:09;99769.59;;;20.83;61.67
78354;BME280;67629;46.040;18.232;2023-05-07T09:22:49;99769.78;;;20.59;62.24
78354;BME280;67629;46.040;18.232;2023-05-07T09:24:31;99776.75;;;20.43;62.37
78354;BME280;67629;46.040;18.232;2023-05-07T09:27:19;99777.09;;;20.82;61.14
78354;BME280;67629;46.040;18.232;2023-05-07T09:28:22;99768.94;;;20.59;59.88
78354;BME280;67629;46.040;18.232;2023-05-07T09:31:04;99767.84;;;21.28;57.99
78354;BME280;67629;46.040;18.232;2023-05-07T09:33:11;99757.69;;;21.59;57.49
78354;BME280;67629;46.040;18.232;2023-05-07T09:34:52;99760.06;;;21.66;58.06
78354;BME280;67629;46.040;18.232;2023-05-07T09:36:32;99760.72;;;21.49;56.25
78354;BME280;67629;46.040;18.232;2023-05-07T09:39:54;99762.72;;;21.21;57.56
78354;BME280;67629;46.040;18.232;2023-05-07T09:41:42;99770.44;;;21.24;57.10
78354;BME280;67629;46.040;18.232;2023-05-07T09:43:23;99762.63;;;21.62;58.07
78354;BME280;67629;46.040;18.232;2023-05-07T09:45:05;99759.63;;;21.72;57.26
78354;BME280;67629;46.040;18.232;2023-05-07T09:46:55;99764.41;;;21.58;56.52
78354;BME280;67629;46.040;18.232;2023-05-07T09:47:58;99769.91;;;21.36;56.05
78354;BME280;67629;46.040;18.232;2023-05-07T09:51:01;99755.66;;;22.00;55.13
78354;BME280;67629;46.040;18.232;2023-05-07T09:54:54;99765.06;;;21.77;57.35
78354;BME280;67629;46.040;18.232;2023-05-07T09:58:36;99768.31;;;21.93;56.46
78354;BME280;67629;46.040;18.232;2023-05-07T10:00:20;99772.91;;;22.11;56.43
78354;BME280;67629;46.040;18.232;2023-05-07T10:02:14;99765.28;;;21.67;57.31
78354;BME280;67629;46.040;18.232;2023-05-07T10:04:19;99767.38;;;22.20;57.17
78354;BME280;67629;46.040;18.232;2023-05-07T10:06:00;99767.66;;;22.32;55.96
78354;BME280;67629;46.040;18.232;2023-05-07T10:07:42;99755.25;;;22.38;54.33
78354;BME280;67629;46.040;18.232;2023-05-07T10:12:27;99769.03;;;22.74;52.81
78354;BME280;67629;46.040;18.232;2023-05-07T10:14:07;99763.03;;;22.80;54.24
78354;BME280;67629;46.040;18.232;2023-05-07T10:15:48;99762.22;;;22.88;54.25
78354;BME280;67629;46.040;18.232;2023-05-07T10:17:50;99760.66;;;22.65;54.62
78354;BME280;67629;46.040;18.232;2023-05-07T10:19:32;99753.00;;;23.18;52.58
78354;BME280;67629;46.040;18.232;2023-05-07T10:23:16;99763.88;;;22.89;56.08
78354;BME280;67629;46.040;18.232;2023-05-07T10:26:42;99757.63;;;23.32;50.46